createdAt,value
2017-01-30T00:00:58.086Z,733.31
2017-01-30T00:01:58.064Z,733.28
2017-01-30T00:02:58.049Z,733.3
2017-01-30T00:03:58.030Z,733.25
2017-01-30T00:04:58.006Z,733.27
2017-01-30T00:05:57.988Z,733.31
2017-01-30T00:06:57.972Z,733.26
2017-01-30T00:07:57.952Z,733.28
2017-01-30T00:08:57.929Z,733.34
2017-01-30T00:09:57.911Z,733.25
2017-01-30T00:10:57.895Z,733.25
2017-01-30T00:11:57.872Z,733.29
2017-01-30T00:12:57.852Z,733.29
2017-01-30T00:13:57.837Z,733.25
2017-01-30T00:14:57.816Z,733.29
2017-01-30T00:15:57.794Z,733.34
2017-01-30T00:16:57.779Z,733.27
2017-01-30T00:17:57.756Z,733.39
2017-01-30T00:18:57.739Z,733.35
2017-01-30T00:19:57.720Z,733.33
2017-01-30T00:20:57.698Z,733.3
2017-01-30T00:21:57.682Z,733.28
2017-01-30T00:22:57.660Z,733.26
2017-01-30T00:23:57.668Z,733.26
2017-01-30T00:24:57.637Z,733.4
2017-01-30T00:25:57.599Z,733.17
2017-01-30T00:26:57.580Z,733.24
2017-01-30T00:27:57.560Z,733.31
2017-01-30T00:28:57.539Z,733.25
2017-01-30T00:29:57.518Z,733.25
2017-01-30T00:30:57.501Z,733.22
2017-01-30T00:31:57.481Z,733.16
2017-01-30T00:32:57.464Z,733.29
2017-01-30T00:33:57.443Z,733.07
2017-01-30T00:34:57.423Z,733.31
2017-01-30T00:35:57.404Z,733.26
2017-01-30T00:36:57.379Z,733.26
2017-01-30T00:37:57.362Z,733.22
2017-01-30T00:38:57.342Z,733.2
2017-01-30T00:39:57.322Z,733.14
2017-01-30T00:40:57.300Z,733.12
2017-01-30T00:41:57.279Z,733.1
2017-01-30T00:42:57.261Z,733.22
2017-01-30T00:43:57.241Z,733.23
2017-01-30T00:44:57.217Z,733.21
2017-01-30T00:45:57.197Z,733.15
2017-01-30T00:46:57.183Z,733.12
2017-01-30T00:47:57.159Z,733.16
2017-01-30T00:48:57.148Z,733.15
2017-01-30T00:49:57.118Z,733.18
2017-01-30T00:50:57.098Z,733.14
2017-01-30T00:51:57.078Z,733.08
2017-01-30T00:52:57.056Z,733.02
2017-01-30T00:53:57.033Z,733.06
2017-01-30T00:54:57.018Z,733.15
2017-01-30T00:55:57.000Z,733.1
2017-01-30T00:56:56.972Z,733.06
2017-01-30T00:57:56.954Z,733.02
2017-01-30T00:58:56.931Z,733.14
2017-01-30T00:59:56.915Z,733.09
2017-01-30T01:00:56.893Z,733.08
2017-01-30T01:01:56.871Z,733.16
2017-01-30T01:02:56.852Z,733.07
2017-01-30T01:03:56.831Z,733.02
2017-01-30T01:04:56.807Z,733.01
2017-01-30T01:05:56.790Z,733
2017-01-30T01:06:56.766Z,733.02
2017-01-30T01:07:56.749Z,733.17
2017-01-30T01:08:56.724Z,733.1
2017-01-30T01:09:56.705Z,733.09
2017-01-30T01:10:56.684Z,733.12
2017-01-30T01:11:56.664Z,733.08
2017-01-30T01:12:56.647Z,733.09
2017-01-30T01:13:56.625Z,733.1
2017-01-30T01:14:56.602Z,733.09
2017-01-30T01:15:56.581Z,733.06
2017-01-30T01:16:56.562Z,733.07
2017-01-30T01:17:56.540Z,733.05
2017-01-30T01:18:56.521Z,732.97
2017-01-30T01:19:56.503Z,733.1
2017-01-30T01:20:56.478Z,733.01
2017-01-30T01:21:56.462Z,733
2017-01-30T01:22:56.438Z,733.07
2017-01-30T01:23:56.421Z,733.09
2017-01-30T01:24:56.400Z,733.06
2017-01-30T01:25:56.376Z,732.99
2017-01-30T01:26:56.356Z,733.04
2017-01-30T01:27:56.334Z,733.03
2017-01-30T01:28:56.318Z,732.99
2017-01-30T01:29:56.296Z,733.05
2017-01-30T01:30:56.274Z,732.99
2017-01-30T01:31:56.258Z,732.97
2017-01-30T01:32:56.236Z,732.95
2017-01-30T01:33:56.215Z,732.95
2017-01-30T01:34:56.195Z,732.98
2017-01-30T01:35:56.174Z,732.98
2017-01-30T01:36:56.153Z,732.96
2017-01-30T01:37:56.132Z,732.97
2017-01-30T01:38:56.111Z,732.98
2017-01-30T01:39:56.087Z,732.92
2017-01-30T01:40:56.067Z,732.9
2017-01-30T01:41:56.053Z,732.92
2017-01-30T01:42:56.025Z,732.87
2017-01-30T01:43:56.005Z,732.97
2017-01-30T01:44:55.985Z,732.89
2017-01-30T01:45:55.966Z,732.87
2017-01-30T01:46:55.947Z,732.88
2017-01-30T01:47:55.923Z,732.87
2017-01-30T01:48:55.925Z,732.93
2017-01-30T01:49:55.881Z,732.95
2017-01-30T01:50:55.860Z,732.9
2017-01-30T01:51:55.840Z,732.91
2017-01-30T01:52:55.822Z,732.9
2017-01-30T01:53:55.801Z,732.93
2017-01-30T01:54:55.781Z,732.91
2017-01-30T01:55:55.760Z,732.91
2017-01-30T01:56:55.737Z,732.93
2017-01-30T01:57:55.719Z,732.93
2017-01-30T01:58:55.700Z,732.93
2017-01-30T01:59:55.676Z,732.89
2017-01-30T02:00:55.658Z,732.89
2017-01-30T02:01:55.634Z,732.79
2017-01-30T02:02:55.617Z,732.89
2017-01-30T02:03:55.594Z,732.85
2017-01-30T02:04:55.578Z,732.83
2017-01-30T02:05:55.553Z,732.84
2017-01-30T02:06:55.534Z,732.85
2017-01-30T02:07:55.516Z,732.8
2017-01-30T02:08:55.491Z,732.83
2017-01-30T02:09:55.471Z,732.81
2017-01-30T02:10:55.455Z,732.83
2017-01-30T02:11:55.431Z,732.79
2017-01-30T02:12:55.414Z,732.68
2017-01-30T02:13:55.417Z,732.74
2017-01-30T02:14:55.369Z,732.76
2017-01-30T02:15:55.351Z,732.76
2017-01-30T02:16:55.331Z,732.7
2017-01-30T02:17:55.312Z,732.77
2017-01-30T02:18:55.291Z,732.71
2017-01-30T02:19:55.271Z,732.7
2017-01-30T02:20:55.251Z,732.69
2017-01-30T02:21:55.231Z,732.7
2017-01-30T02:22:55.210Z,732.68
2017-01-30T02:23:55.187Z,732.69
2017-01-30T02:24:55.165Z,732.59
2017-01-30T02:25:55.146Z,732.66
2017-01-30T02:26:55.129Z,732.66
2017-01-30T02:27:55.110Z,732.64
2017-01-30T02:28:55.090Z,732.64
2017-01-30T02:29:55.070Z,732.66
2017-01-30T02:30:55.046Z,732.69
2017-01-30T02:31:55.031Z,732.67
2017-01-30T02:32:55.008Z,732.69
2017-01-30T02:33:54.989Z,732.64
2017-01-30T02:34:54.968Z,732.65
2017-01-30T02:35:54.949Z,732.61
2017-01-30T02:36:54.930Z,732.63
2017-01-30T02:37:54.906Z,732.59
2017-01-30T02:38:54.886Z,732.59
2017-01-30T02:39:54.870Z,732.57
2017-01-30T02:40:54.848Z,732.59
2017-01-30T02:41:54.827Z,732.55
2017-01-30T02:42:54.811Z,732.57
2017-01-30T02:43:54.818Z,732.58
2017-01-30T02:44:54.770Z,732.6
2017-01-30T02:45:54.748Z,732.6
2017-01-30T02:46:54.728Z,732.58
2017-01-30T02:47:54.712Z,732.59
2017-01-30T02:48:54.690Z,732.57
2017-01-30T02:49:54.673Z,732.48
2017-01-30T02:50:54.651Z,732.51
2017-01-30T02:51:54.629Z,732.52
2017-01-30T02:52:54.613Z,732.5
2017-01-30T02:53:54.593Z,732.52
2017-01-30T02:54:54.570Z,732.39
2017-01-30T02:55:54.549Z,732.48
2017-01-30T02:56:54.533Z,732.46
2017-01-30T02:57:54.510Z,732.48
2017-01-30T02:58:54.488Z,732.45
2017-01-30T02:59:54.469Z,732.44
2017-01-30T03:00:54.453Z,732.48
2017-01-30T03:01:54.430Z,732.47
2017-01-30T03:02:54.411Z,732.39
2017-01-30T03:03:54.389Z,732.43
2017-01-30T03:04:54.370Z,732.5
2017-01-30T03:05:54.349Z,732.41
2017-01-30T03:06:54.327Z,732.43
2017-01-30T03:07:54.311Z,732.39
2017-01-30T03:08:54.291Z,732.43
2017-01-30T03:09:54.268Z,732.4
2017-01-30T03:10:54.247Z,732.46
2017-01-30T03:11:54.227Z,732.41
2017-01-30T03:12:54.207Z,732.43
2017-01-30T03:13:54.189Z,732.46
2017-01-30T03:14:54.169Z,732.44
2017-01-30T03:15:54.149Z,732.41
2017-01-30T03:16:54.126Z,732.42
2017-01-30T03:17:54.104Z,732.4
2017-01-30T03:18:54.085Z,732.4
2017-01-30T03:19:54.067Z,732.39
2017-01-30T03:20:54.047Z,732.41
2017-01-30T03:21:54.026Z,732.39
2017-01-30T03:22:54.009Z,732.35
2017-01-30T03:23:53.988Z,732.39
2017-01-30T03:24:53.966Z,732.36
2017-01-30T03:25:53.946Z,732.38
2017-01-30T03:26:53.929Z,732.31
2017-01-30T03:27:53.910Z,732.31
2017-01-30T03:28:53.889Z,732.29
2017-01-30T03:29:53.870Z,732.27
2017-01-30T03:30:53.846Z,732.32
2017-01-30T03:31:53.830Z,732.31
2017-01-30T03:32:53.806Z,732.33
2017-01-30T03:33:53.785Z,732.26
2017-01-30T03:34:53.766Z,732.3
2017-01-30T03:35:53.746Z,732.27
2017-01-30T03:36:53.725Z,732.26
2017-01-30T03:37:53.705Z,732.26
2017-01-30T03:38:53.685Z,732.27
2017-01-30T03:39:53.664Z,732.3
2017-01-30T03:40:53.648Z,732.32
2017-01-30T03:41:53.624Z,732.28
2017-01-30T03:42:53.604Z,732.29
2017-01-30T03:43:53.587Z,732.3
2017-01-30T03:44:53.569Z,732.3
2017-01-30T03:45:53.546Z,732.29
2017-01-30T03:46:53.525Z,732.3
2017-01-30T03:47:53.503Z,732.3
2017-01-30T03:48:53.487Z,732.3
2017-01-30T03:49:53.468Z,732.29
2017-01-30T03:50:53.443Z,732.32
2017-01-30T03:51:53.424Z,732.23
2017-01-30T03:52:53.407Z,732.27
2017-01-30T03:53:53.388Z,732.31
2017-01-30T03:54:53.366Z,732.23
2017-01-30T03:55:53.345Z,732.29
2017-01-30T03:56:53.325Z,732.3
2017-01-30T03:57:53.307Z,732.25
2017-01-30T03:58:53.285Z,732.27
2017-01-30T03:59:53.265Z,732.28
2017-01-30T04:00:53.246Z,732.3
2017-01-30T04:01:53.228Z,732.27
2017-01-30T04:02:53.208Z,732.28
2017-01-30T04:03:53.186Z,732.31
2017-01-30T04:04:53.169Z,732.26
2017-01-30T04:05:53.149Z,732.3
2017-01-30T04:06:53.129Z,732.26
2017-01-30T04:07:53.105Z,732.31
2017-01-30T04:08:53.088Z,732.29
2017-01-30T04:09:53.070Z,732.31
2017-01-30T04:10:53.047Z,732.34
2017-01-30T04:11:53.027Z,732.33
2017-01-30T04:12:53.006Z,732.35
2017-01-30T04:13:52.987Z,732.31
2017-01-30T04:14:52.968Z,732.37
2017-01-30T04:15:52.950Z,732.32
2017-01-30T04:16:52.930Z,732.34
2017-01-30T04:17:52.908Z,732.34
2017-01-30T04:18:52.891Z,732.38
2017-01-30T04:19:52.870Z,732.37
2017-01-30T04:20:52.847Z,732.33
2017-01-30T04:21:52.830Z,732.3
2017-01-30T04:22:52.806Z,732.31
2017-01-30T04:23:52.788Z,732.33
2017-01-30T04:24:52.768Z,732.34
2017-01-30T04:25:52.745Z,732.28
2017-01-30T04:26:52.728Z,732.3
2017-01-30T04:27:52.705Z,732.29
2017-01-30T04:28:52.684Z,732.29
2017-01-30T04:29:52.668Z,732.27
2017-01-30T04:30:52.643Z,732.22
2017-01-30T04:31:52.626Z,732.3
2017-01-30T04:32:52.603Z,732.22
2017-01-30T04:33:52.586Z,732.25
2017-01-30T04:34:52.564Z,732.25
2017-01-30T04:35:52.541Z,732.17
2017-01-30T04:36:52.521Z,732.25
2017-01-30T04:37:52.502Z,732.21
2017-01-30T04:38:52.478Z,732.3
2017-01-30T04:39:52.458Z,732.14
2017-01-30T04:40:52.436Z,732.21
2017-01-30T04:41:52.419Z,732.22
2017-01-30T04:42:52.398Z,732.19
2017-01-30T04:43:52.374Z,732.24
2017-01-30T04:44:52.353Z,732.18
2017-01-30T04:45:52.332Z,732.13
2017-01-30T04:46:52.314Z,732.24
2017-01-30T04:47:52.292Z,732.14
2017-01-30T04:48:52.271Z,732.14
2017-01-30T04:49:52.271Z,732.19
2017-01-30T04:50:52.225Z,732.13
2017-01-30T04:51:52.208Z,732.1
2017-01-30T04:52:52.187Z,732.21
2017-01-30T04:53:52.166Z,732.2
2017-01-30T04:54:52.141Z,732.16
2017-01-30T04:55:52.121Z,732.18
2017-01-30T04:56:52.103Z,732.18
2017-01-30T04:57:52.085Z,732.19
2017-01-30T04:58:52.061Z,732.18
2017-01-30T04:59:52.036Z,732.23
2017-01-30T05:00:52.015Z,732.13
2017-01-30T05:01:51.996Z,732.16
2017-01-30T05:02:51.976Z,732.1
2017-01-30T05:03:51.951Z,732.15
2017-01-30T05:04:51.929Z,732.15
2017-01-30T05:05:51.909Z,732.05
2017-01-30T05:06:51.888Z,732.13
2017-01-30T05:07:51.866Z,732.14
2017-01-30T05:08:51.851Z,732.13
2017-01-30T05:09:51.828Z,732.22
2017-01-30T05:10:51.806Z,732.2
2017-01-30T05:11:51.782Z,732.15
2017-01-30T05:12:51.764Z,732.16
2017-01-30T05:13:51.740Z,732.2
2017-01-30T05:14:51.718Z,732.18
2017-01-30T05:15:51.700Z,732.17
2017-01-30T05:16:51.679Z,732.12
2017-01-30T05:17:51.655Z,732.04
2017-01-30T05:18:51.635Z,732.09
2017-01-30T05:19:51.615Z,732.02
2017-01-30T05:20:51.591Z,732.12
2017-01-30T05:21:51.569Z,731.91
2017-01-30T05:22:51.548Z,732.01
2017-01-30T05:23:51.529Z,732.1
2017-01-30T05:24:51.504Z,732.02
2017-01-30T05:25:51.483Z,732.1
2017-01-30T05:26:51.463Z,732.03
2017-01-30T05:27:51.439Z,732.14
2017-01-30T05:28:51.419Z,732.08
2017-01-30T05:29:51.400Z,732.07
2017-01-30T05:30:51.374Z,732.04
2017-01-30T05:31:51.354Z,732.12
2017-01-30T05:32:51.333Z,732.16
2017-01-30T05:33:51.308Z,732.13
2017-01-30T05:34:51.291Z,732.08
2017-01-30T05:35:51.267Z,732.05
2017-01-30T05:36:51.247Z,732.13
2017-01-30T05:37:51.223Z,732.11
2017-01-30T05:38:51.205Z,732.07
2017-01-30T05:39:51.179Z,731.97
2017-01-30T05:40:51.161Z,732.07
2017-01-30T05:41:51.138Z,732.01
2017-01-30T05:42:51.117Z,732.02
2017-01-30T05:43:51.090Z,732
2017-01-30T05:44:51.072Z,732.06
2017-01-30T05:45:51.051Z,732.05
2017-01-30T05:46:51.027Z,731.99
2017-01-30T05:47:51.004Z,732
2017-01-30T05:48:50.982Z,732.07
2017-01-30T05:49:50.960Z,732.04
2017-01-30T05:50:50.943Z,732.01
2017-01-30T05:51:50.918Z,732.04
2017-01-30T05:52:50.897Z,731.96
2017-01-30T05:53:50.874Z,732.04
2017-01-30T05:54:50.855Z,731.99
2017-01-30T05:55:50.833Z,731.98
2017-01-30T05:56:50.810Z,732.02
2017-01-30T05:57:50.786Z,731.91
2017-01-30T05:58:50.763Z,731.91
2017-01-30T05:59:50.745Z,731.99
2017-01-30T06:00:50.723Z,732.01
2017-01-30T06:01:50.702Z,731.99
2017-01-30T06:02:50.680Z,732.04
2017-01-30T06:03:50.656Z,731.99
2017-01-30T06:04:50.636Z,732.01
2017-01-30T06:05:50.612Z,731.97
2017-01-30T06:06:50.593Z,732.03
2017-01-30T06:07:50.572Z,732
2017-01-30T06:08:50.548Z,732.01
2017-01-30T06:09:50.528Z,732.01
2017-01-30T06:10:50.504Z,732.03
2017-01-30T06:11:50.483Z,731.98
2017-01-30T06:12:50.460Z,732.03
2017-01-30T06:13:50.439Z,732.04
2017-01-30T06:14:50.418Z,731.97
2017-01-30T06:15:50.400Z,731.99
2017-01-30T06:16:50.375Z,731.97
2017-01-30T06:17:50.356Z,731.99
2017-01-30T06:18:50.337Z,732.06
2017-01-30T06:19:50.315Z,732.05
2017-01-30T06:20:50.290Z,732
2017-01-30T06:21:50.273Z,731.98
2017-01-30T06:22:50.252Z,732.02
2017-01-30T06:23:50.227Z,732.04
2017-01-30T06:24:50.210Z,732.06
2017-01-30T06:25:50.185Z,731.89
2017-01-30T06:26:50.169Z,732
2017-01-30T06:27:50.144Z,731.96
2017-01-30T06:28:50.123Z,732.02
2017-01-30T06:29:50.102Z,731.98
2017-01-30T06:30:50.085Z,731.97
2017-01-30T06:31:50.063Z,731.92
2017-01-30T06:32:50.039Z,731.98
2017-01-30T06:33:50.022Z,731.92
2017-01-30T06:34:50.000Z,732.07
2017-01-30T06:35:49.980Z,732.03
2017-01-30T06:36:49.959Z,732.08
2017-01-30T06:37:49.938Z,732.02
2017-01-30T06:38:49.914Z,732.05
2017-01-30T06:39:49.897Z,731.99
2017-01-30T06:40:49.873Z,732.11
2017-01-30T06:41:49.851Z,732.03
2017-01-30T06:42:49.830Z,731.97
2017-01-30T06:43:49.809Z,732.04
2017-01-30T06:44:49.991Z,731.93
2017-01-30T06:45:49.972Z,731.98
2017-01-30T06:46:49.748Z,731.94
2017-01-30T06:47:49.725Z,731.9
2017-01-30T06:48:49.705Z,731.92
2017-01-30T06:49:49.688Z,731.98
2017-01-30T06:50:49.663Z,732
2017-01-30T06:51:49.641Z,731.97
2017-01-30T06:52:49.624Z,732.03
2017-01-30T06:53:49.600Z,731.98
2017-01-30T06:54:49.583Z,731.97
2017-01-30T06:55:49.558Z,732.01
2017-01-30T06:56:49.537Z,731.97
2017-01-30T06:57:49.520Z,731.91
2017-01-30T06:58:49.500Z,731.93
2017-01-30T06:59:49.476Z,731.99
2017-01-30T07:00:49.459Z,732
2017-01-30T07:01:49.439Z,732.02
2017-01-30T07:02:49.417Z,732.05
2017-01-30T07:03:49.393Z,732.03
2017-01-30T07:04:49.373Z,732.09
2017-01-30T07:05:49.353Z,732.08
2017-01-30T07:06:49.333Z,732.05
2017-01-30T07:07:49.313Z,732.08
2017-01-30T07:08:49.296Z,732.09
2017-01-30T07:09:49.277Z,732.05
2017-01-30T07:10:49.257Z,732.09
2017-01-30T07:11:49.237Z,732.12
2017-01-30T07:12:49.218Z,732.12
2017-01-30T07:13:49.195Z,732.03
2017-01-30T07:14:49.179Z,732.02
2017-01-30T07:15:49.159Z,731.97
2017-01-30T07:16:49.141Z,732.02
2017-01-30T07:17:49.117Z,732.1
2017-01-30T07:18:49.095Z,732.07
2017-01-30T07:19:49.080Z,732.11
2017-01-30T07:20:49.055Z,732.09
2017-01-30T07:21:49.037Z,732.03
2017-01-30T07:22:49.020Z,732.03
2017-01-30T07:23:48.998Z,732.01
2017-01-30T07:24:48.977Z,731.99
2017-01-30T07:25:48.961Z,731.99
2017-01-30T07:26:48.936Z,732.01
2017-01-30T07:27:48.921Z,731.95
2017-01-30T07:28:48.900Z,731.97
2017-01-30T07:29:48.878Z,731.94
2017-01-30T07:30:48.862Z,731.93
2017-01-30T07:31:48.839Z,731.89
2017-01-30T07:32:48.819Z,731.87
2017-01-30T07:33:48.801Z,731.96
2017-01-30T07:34:48.781Z,731.88
2017-01-30T07:35:48.764Z,731.99
2017-01-30T07:36:48.745Z,731.98
2017-01-30T07:37:48.723Z,731.96
2017-01-30T07:38:48.707Z,731.88
2017-01-30T07:39:48.685Z,731.89
2017-01-30T07:40:48.668Z,731.91
2017-01-30T07:41:48.646Z,731.91
2017-01-30T07:42:48.627Z,731.99
2017-01-30T07:43:48.608Z,732
2017-01-30T07:44:48.589Z,731.91
2017-01-30T07:45:48.573Z,731.84
2017-01-30T07:46:48.554Z,731.79
2017-01-30T07:47:48.535Z,731.86
2017-01-30T07:48:48.512Z,731.89
2017-01-30T07:50:48.478Z,731.83
2017-01-30T07:51:48.454Z,731.92
2017-01-30T07:52:48.439Z,731.89
2017-01-30T07:53:48.416Z,731.87
2017-01-30T07:54:48.401Z,731.9
2017-01-30T07:55:48.377Z,731.87
2017-01-30T07:56:48.357Z,731.88
2017-01-30T07:57:48.341Z,731.86
2017-01-30T07:58:48.318Z,731.85
2017-01-30T07:59:48.299Z,731.81
2017-01-30T08:00:48.279Z,731.62
2017-01-30T08:01:48.261Z,731.79
2017-01-30T08:02:48.240Z,731.86
2017-01-30T08:03:48.218Z,731.77
2017-01-30T08:04:48.198Z,731.83
2017-01-30T08:05:48.183Z,731.89
2017-01-30T08:06:48.157Z,731.85
2017-01-30T08:07:48.137Z,731.81
2017-01-30T08:08:48.121Z,731.84
2017-01-30T08:09:48.097Z,731.83
2017-01-30T08:10:48.081Z,731.81
2017-01-30T08:11:48.057Z,731.83
2017-01-30T08:12:48.037Z,731.84
2017-01-30T08:13:48.016Z,731.85
2017-01-30T08:14:48.000Z,731.84
2017-01-30T08:15:47.980Z,731.84
2017-01-30T08:16:47.960Z,731.87
2017-01-30T08:17:47.939Z,731.89
2017-01-30T08:18:47.917Z,731.79
2017-01-30T08:19:47.900Z,731.84
2017-01-30T08:20:47.876Z,731.84
2017-01-30T08:21:47.860Z,731.82
2017-01-30T08:22:47.839Z,731.85
2017-01-30T08:23:47.816Z,731.8
2017-01-30T08:24:47.798Z,731.81
2017-01-30T08:25:47.779Z,731.84
2017-01-30T08:26:47.759Z,731.89
2017-01-30T08:27:47.735Z,731.78
2017-01-30T08:28:47.715Z,731.84
2017-01-30T08:29:47.698Z,731.83
2017-01-30T08:30:47.675Z,731.8
2017-01-30T08:31:47.658Z,731.76
2017-01-30T08:32:47.637Z,731.8
2017-01-30T08:33:47.613Z,731.86
2017-01-30T08:34:47.594Z,731.81
2017-01-30T08:35:47.573Z,731.91
2017-01-30T08:36:47.559Z,731.85
2017-01-30T08:37:47.535Z,731.85
2017-01-30T08:38:47.512Z,731.86
2017-01-30T08:39:47.495Z,731.82
2017-01-30T08:40:47.474Z,731.79
2017-01-30T08:41:47.454Z,731.84
2017-01-30T08:42:47.429Z,731.89
2017-01-30T08:43:47.410Z,731.83
2017-01-30T08:44:47.392Z,731.83
2017-01-30T08:45:47.369Z,731.83
2017-01-30T08:46:47.352Z,731.81
2017-01-30T08:47:47.327Z,731.87
2017-01-30T08:48:47.312Z,731.81
2017-01-30T08:49:47.289Z,731.79
2017-01-30T08:50:47.270Z,731.73
2017-01-30T08:51:47.249Z,731.85
2017-01-30T08:52:47.229Z,731.76
2017-01-30T08:53:47.205Z,731.86
2017-01-30T08:54:47.188Z,731.86
2017-01-30T08:55:47.165Z,731.82
2017-01-30T08:56:47.145Z,731.84
2017-01-30T08:57:47.128Z,731.83
2017-01-30T08:58:47.104Z,731.87
2017-01-30T08:59:47.084Z,731.74
2017-01-30T09:00:47.063Z,731.8
2017-01-30T09:01:47.046Z,731.83
2017-01-30T09:02:47.025Z,731.77
2017-01-30T09:03:47.001Z,731.66
2017-01-30T09:04:46.980Z,731.83
2017-01-30T09:05:46.963Z,731.8
2017-01-30T09:06:46.940Z,731.74
2017-01-30T09:07:46.920Z,731.77
2017-01-30T09:08:46.898Z,731.73
2017-01-30T09:09:46.881Z,731.74
2017-01-30T09:10:46.857Z,731.81
2017-01-30T09:11:46.841Z,731.68
2017-01-30T09:12:46.820Z,731.76
2017-01-30T09:13:46.796Z,731.75
2017-01-30T09:14:46.775Z,731.75
2017-01-30T09:15:46.754Z,731.76
2017-01-30T09:16:46.734Z,731.79
2017-01-30T09:17:46.717Z,731.82
2017-01-30T09:18:46.693Z,731.86
2017-01-30T09:19:46.672Z,731.83
2017-01-30T09:20:46.654Z,731.77
2017-01-30T09:21:46.632Z,731.81
2017-01-30T09:22:46.611Z,731.88
2017-01-30T09:23:46.594Z,731.84
2017-01-30T09:24:46.571Z,731.81
2017-01-30T09:25:46.554Z,731.79
2017-01-30T09:26:46.530Z,731.74
2017-01-30T09:27:46.535Z,731.83
2017-01-30T09:28:46.492Z,731.88
2017-01-30T09:29:46.469Z,731.8
2017-01-30T09:30:46.448Z,731.81
2017-01-30T09:31:46.431Z,731.81
2017-01-30T09:32:46.412Z,731.84
2017-01-30T09:33:46.399Z,731.91
2017-01-30T09:34:46.370Z,731.77
2017-01-30T09:35:46.351Z,731.82
2017-01-30T09:36:46.328Z,731.78
2017-01-30T09:37:46.306Z,731.78
2017-01-30T09:38:46.287Z,731.83
2017-01-30T09:39:46.270Z,731.78
2017-01-30T09:40:46.250Z,731.84
2017-01-30T09:41:46.230Z,731.83
2017-01-30T09:42:46.216Z,731.82
2017-01-30T09:43:46.191Z,731.84
2017-01-30T09:44:46.167Z,731.85
2017-01-30T09:45:46.147Z,731.86
2017-01-30T09:46:46.130Z,731.89
2017-01-30T09:47:46.108Z,731.88
2017-01-30T09:48:46.090Z,731.86
2017-01-30T09:49:46.093Z,731.86
2017-01-30T09:50:46.050Z,731.79
2017-01-30T09:51:46.031Z,731.86
2017-01-30T09:52:46.011Z,731.87
2017-01-30T09:53:45.991Z,731.75
2017-01-30T09:54:45.968Z,731.81
2017-01-30T09:55:45.949Z,731.77
2017-01-30T09:56:45.929Z,731.83
2017-01-30T09:57:45.913Z,731.59
2017-01-30T09:58:45.893Z,731.77
2017-01-30T09:59:45.870Z,731.82
2017-01-30T10:00:45.855Z,731.72
2017-01-30T10:01:45.831Z,731.76
2017-01-30T10:02:45.811Z,731.76
2017-01-30T10:03:45.791Z,731.71
2017-01-30T10:04:45.771Z,731.71
2017-01-30T10:05:45.755Z,731.71
2017-01-30T10:06:45.734Z,731.74
2017-01-30T10:07:45.710Z,731.73
2017-01-30T10:08:45.691Z,731.7
2017-01-30T10:09:45.672Z,731.73
2017-01-30T10:10:45.655Z,731.69
2017-01-30T10:11:45.635Z,731.66
2017-01-30T10:12:45.616Z,731.58
2017-01-30T10:13:45.596Z,731.65
2017-01-30T10:14:45.573Z,731.61
2017-01-30T10:15:45.558Z,731.62
2017-01-30T10:16:45.538Z,731.65
2017-01-30T10:17:45.517Z,731.63
2017-01-30T10:18:45.496Z,731.67
2017-01-30T10:19:45.477Z,731.68
2017-01-30T10:20:45.460Z,731.66
2017-01-30T10:21:45.440Z,731.61
2017-01-30T10:22:45.421Z,731.6
2017-01-30T10:23:45.401Z,731.61
2017-01-30T10:24:45.383Z,731.64
2017-01-30T10:25:45.365Z,731.59
2017-01-30T10:26:45.344Z,731.63
2017-01-30T10:27:45.324Z,731.55
2017-01-30T10:28:45.305Z,731.49
2017-01-30T10:29:45.286Z,731.54
2017-01-30T10:30:45.264Z,731.4
2017-01-30T10:31:45.244Z,731.47
2017-01-30T10:32:45.226Z,731.43
2017-01-30T10:33:45.208Z,731.46
2017-01-30T10:34:45.186Z,731.44
2017-01-30T10:35:45.168Z,731.4
2017-01-30T10:36:45.149Z,731.48
2017-01-30T10:37:45.129Z,731.5
2017-01-30T10:38:45.109Z,731.51
2017-01-30T10:39:45.091Z,731.48
2017-01-30T10:40:45.074Z,731.45
2017-01-30T10:41:45.057Z,731.46
2017-01-30T10:42:45.037Z,731.48
2017-01-30T10:43:45.015Z,731.46
2017-01-30T10:44:44.996Z,731.37
2017-01-30T10:45:44.977Z,731.45
2017-01-30T10:46:44.962Z,731.33
2017-01-30T10:47:44.939Z,731.42
2017-01-30T10:48:44.921Z,731.42
2017-01-30T10:49:44.905Z,731.4
2017-01-30T10:50:44.885Z,731.47
2017-01-30T10:51:44.867Z,731.36
2017-01-30T10:52:44.846Z,731.39
2017-01-30T10:53:44.827Z,731.39
2017-01-30T10:54:44.808Z,731.41
2017-01-30T10:55:44.792Z,731.32
2017-01-30T10:56:44.771Z,731.33
2017-01-30T10:57:44.750Z,731.38
2017-01-30T10:58:44.737Z,731.28
2017-01-30T10:59:44.712Z,731.27
2017-01-30T11:00:44.693Z,731.32
2017-01-30T11:01:44.674Z,731.31
2017-01-30T11:02:44.660Z,731.37
2017-01-30T11:03:44.636Z,731.16
2017-01-30T11:04:44.618Z,731.29
2017-01-30T11:05:44.604Z,731.22
2017-01-30T11:06:44.579Z,731.32
2017-01-30T11:07:44.564Z,731.34
2017-01-30T11:08:44.542Z,731.21
2017-01-30T11:09:44.521Z,731.27
2017-01-30T11:10:44.501Z,731.25
2017-01-30T11:11:44.482Z,731.14
2017-01-30T11:12:44.465Z,731.17
2017-01-30T11:13:44.443Z,730.98
2017-01-30T11:14:44.426Z,731.12
2017-01-30T11:15:44.402Z,731.22
2017-01-30T11:16:44.383Z,730.82
2017-01-30T11:17:44.366Z,731.14
2017-01-30T11:18:44.346Z,731.29
2017-01-30T11:19:44.323Z,731.09
2017-01-30T11:20:44.333Z,731.15
2017-01-30T11:21:44.285Z,731.19
2017-01-30T11:22:44.269Z,731.15
2017-01-30T11:23:44.247Z,731.17
2017-01-30T11:24:44.226Z,731.16
2017-01-30T11:25:44.209Z,731.08
2017-01-30T11:26:44.187Z,731.17
2017-01-30T11:27:44.163Z,730.99
2017-01-30T11:28:44.152Z,731.01
2017-01-30T11:29:44.124Z,730.99
2017-01-30T11:30:44.103Z,731.06
2017-01-30T11:31:44.087Z,731.02
2017-01-30T11:32:44.096Z,731.11
2017-01-30T11:33:44.046Z,731.06
2017-01-30T11:34:44.029Z,731.07
2017-01-30T11:35:44.012Z,731.04
2017-01-30T11:36:43.989Z,731
2017-01-30T11:37:43.973Z,731.09
2017-01-30T11:38:43.954Z,730.99
2017-01-30T11:39:43.936Z,730.98
2017-01-30T11:40:43.913Z,730.94
2017-01-30T11:41:43.896Z,730.93
2017-01-30T11:42:43.875Z,730.97
2017-01-30T11:43:43.865Z,730.89
2017-01-30T11:44:43.846Z,730.93
2017-01-30T11:45:43.821Z,730.86
2017-01-30T11:46:43.799Z,730.85
2017-01-30T11:47:43.780Z,730.88
2017-01-30T11:48:43.761Z,730.84
2017-01-30T11:49:43.745Z,730.83
2017-01-30T11:50:43.725Z,730.75
2017-01-30T11:51:43.708Z,730.97
2017-01-30T11:52:43.683Z,730.76
2017-01-30T11:53:43.668Z,730.92
2017-01-30T11:54:43.644Z,730.86
2017-01-30T11:55:43.624Z,730.83
2017-01-30T11:56:43.604Z,730.79
2017-01-30T11:57:43.584Z,730.84
2017-01-30T11:58:43.569Z,730.85
2017-01-30T11:59:43.545Z,730.82
2017-01-30T12:00:43.525Z,730.77
2017-01-30T12:01:43.509Z,730.69
2017-01-30T12:02:43.490Z,730.62
2017-01-30T12:03:43.470Z,730.66
2017-01-30T12:04:43.450Z,730.77
2017-01-30T12:05:43.430Z,730.76
2017-01-30T12:06:43.408Z,730.7
2017-01-30T12:07:43.396Z,730.6
2017-01-30T12:08:43.371Z,730.71
2017-01-30T12:09:43.352Z,730.66
2017-01-30T12:10:43.333Z,730.61
2017-01-30T12:11:43.312Z,730.74
2017-01-30T12:12:43.292Z,730.7
2017-01-30T12:13:43.273Z,730.71
2017-01-30T12:14:43.250Z,730.68
2017-01-30T12:15:43.236Z,730.62
2017-01-30T12:16:43.217Z,730.63
2017-01-30T12:17:43.192Z,730.66
2017-01-30T12:18:43.175Z,730.56
2017-01-30T12:19:43.155Z,730.56
2017-01-30T12:20:43.172Z,730.6
2017-01-30T12:21:43.117Z,730.58
2017-01-30T12:22:43.092Z,730.54
2017-01-30T12:23:43.076Z,730.58
2017-01-30T12:24:43.055Z,730.65
2017-01-30T12:25:43.038Z,730.64
2017-01-30T12:26:43.019Z,730.59
2017-01-30T12:27:42.999Z,730.74
2017-01-30T12:28:42.977Z,730.68
2017-01-30T12:29:42.957Z,730.55
2017-01-30T12:30:42.941Z,730.59
2017-01-30T12:31:42.922Z,730.5
2017-01-30T12:32:42.899Z,730.56